Terminal Aerodrome Forecast
Issued by NWS

Home | Current Version | Previous Version | Text Only | Print | Product List | Glossary On
Versions: 1 2 3 4 5 6 7 8 9 10 11 12 13 14 15 16 17 18
000
FTUS46 KMTR 040540
TAFMRY
TAF
KMRY 040540Z 0406/0506 VRB03KT P6SM OVC004
     FM041200 VRB03KT 5SM BR OVC003
     FM041700 VRB04KT P6SM BKN006
     FM041900 30007KT P6SM SCT010
     FM042200 26009KT P6SM FEW010
     FM050200 25008KT P6SM BKN009=

USA.gov is the U.S. government's official web portal to all federal, state and local government web resources and services.